createdAt,value
2023-02-22T00:02:27.241Z,36.60
2023-02-22T00:04:57.064Z,36.60
2023-02-22T00:07:25.461Z,36.80
2023-02-22T00:09:53.850Z,36.70
2023-02-22T00:12:22.384Z,36.70
2023-02-22T00:14:51.245Z,36.80
2023-02-22T00:17:20.586Z,36.70
2023-02-22T00:19:50.872Z,36.80
2023-02-22T00:22:20.729Z,36.80
2023-02-22T00:24:50.326Z,36.70
2023-02-22T00:27:18.850Z,36.70
2023-02-22T00:29:48.362Z,36.90
2023-02-22T00:32:20.124Z,36.80
2023-02-22T00:34:54.102Z,36.70
2023-02-22T00:37:24.086Z,36.70
2023-02-22T00:39:53.276Z,36.60
2023-02-22T00:42:21.810Z,36.60
2023-02-22T00:44:50.243Z,36.60
2023-02-22T00:47:18.673Z,36.70
2023-02-22T00:49:47.228Z,36.80
2023-02-22T00:52:15.609Z,36.70
2023-02-22T00:54:45.451Z,36.80
2023-02-22T00:57:14.413Z,36.90
2023-02-22T00:59:42.795Z,37.00
2023-02-22T01:02:11.230Z,37.00
2023-02-22T01:04:42.938Z,37.00
2023-02-22T01:07:11.683Z,36.90
2023-02-22T01:09:41.659Z,36.90
2023-02-22T01:12:13.477Z,36.90
2023-02-22T01:14:42.937Z,36.90
2023-02-22T01:17:11.496Z,37.10
2023-02-22T01:19:42.554Z,37.10
2023-02-22T01:22:11.153Z,37.20
2023-02-22T01:24:39.582Z,37.20
2023-02-22T01:27:08.320Z,37.40
2023-02-22T01:29:39.196Z,37.40
2023-02-22T01:32:07.946Z,37.50
2023-02-22T01:34:36.484Z,37.60
2023-02-22T01:37:06.544Z,37.60
2023-02-22T01:39:37.376Z,37.80
2023-02-22T01:42:09.787Z,37.90
2023-02-22T01:44:41.574Z,37.80
2023-02-22T01:47:10.207Z,37.90
2023-02-22T01:49:43.617Z,37.90
2023-02-22T01:52:18.718Z,37.90
2023-02-22T01:54:53.998Z,37.80
2023-02-22T01:57:26.716Z,37.50
2023-02-22T02:00:10.137Z,37.80
2023-02-22T02:02:40.553Z,37.80
2023-02-22T02:05:10.679Z,37.80
2023-02-22T02:07:40.692Z,38.00
2023-02-22T02:10:14.504Z,38.10
2023-02-22T02:12:47.614Z,38.20
2023-02-22T02:15:26.387Z,38.30
2023-02-22T02:17:58.381Z,38.40
2023-02-22T02:20:38.478Z,38.40
2023-02-22T02:23:35.495Z,38.40
2023-02-22T02:27:10.895Z,38.50
2023-02-22T02:30:45.349Z,38.50
2023-02-22T02:33:23.002Z,38.50
2023-02-22T02:36:02.721Z,38.50
2023-02-22T02:38:41.363Z,38.60
2023-02-22T02:41:17.980Z,38.60
2023-02-22T02:43:55.779Z,38.70
2023-02-22T02:46:34.302Z,38.70
2023-02-22T02:49:16.427Z,39.30
2023-02-22T02:51:53.928Z,38.90
2023-02-22T02:54:24.502Z,39.20
2023-02-22T02:56:53.039Z,39.20
2023-02-22T02:59:29.174Z,39.30
2023-02-22T03:02:21.497Z,39.30
2023-02-22T03:05:20.193Z,39.30
2023-02-22T03:08:00.673Z,39.30
2023-02-22T03:10:50.460Z,39.10
2023-02-22T03:13:32.170Z,39.20
2023-02-22T03:16:17.265Z,39.20
2023-02-22T03:18:55.993Z,39.20
2023-02-22T03:21:34.111Z,39.20
2023-02-22T03:24:12.314Z,39.10
2023-02-22T03:26:46.350Z,38.90
2023-02-22T03:29:21.021Z,38.80
2023-02-22T03:31:54.566Z,39.00
2023-02-22T03:34:29.025Z,39.20
2023-02-22T03:37:04.856Z,39.10
2023-02-22T03:39:37.897Z,39.20
2023-02-22T03:42:13.196Z,39.30
2023-02-22T03:44:46.943Z,39.30
2023-02-22T03:47:24.020Z,39.40
2023-02-22T03:49:58.845Z,39.50
2023-02-22T03:52:28.958Z,39.60
2023-02-22T03:54:57.447Z,39.70
2023-02-22T03:57:30.487Z,39.70
2023-02-22T03:59:59.102Z,39.60
2023-02-22T04:02:27.657Z,39.50
2023-02-22T04:04:56.159Z,39.70
2023-02-22T04:07:24.620Z,39.60
2023-02-22T04:09:54.524Z,39.60
2023-02-22T04:12:23.037Z,39.50
2023-02-22T04:14:51.463Z,39.40
2023-02-22T04:17:20.145Z,39.40
2023-02-22T04:19:48.588Z,39.30
2023-02-22T04:22:17.036Z,39.40
2023-02-22T04:24:45.628Z,39.50
2023-02-22T04:27:15.692Z,39.60
2023-02-22T04:29:44.481Z,39.60
2023-02-22T04:32:12.956Z,39.70
2023-02-22T04:34:41.479Z,39.80
2023-02-22T04:37:10.329Z,39.70
2023-02-22T04:39:39.045Z,39.70
2023-02-22T04:42:07.460Z,39.80
2023-02-22T04:44:37.273Z,39.70
2023-02-22T04:47:05.898Z,39.60
2023-02-22T04:49:34.571Z,40.30
2023-02-22T04:52:03.113Z,39.80
2023-02-22T04:54:32.818Z,39.70
2023-02-22T04:57:01.263Z,39.80
2023-02-22T04:59:29.770Z,39.90
2023-02-22T05:02:00.855Z,39.90
2023-02-22T05:04:29.859Z,39.90
2023-02-22T05:06:58.252Z,40.10
2023-02-22T05:09:26.853Z,40.00
2023-02-22T05:11:55.457Z,40.00
2023-02-22T05:14:26.705Z,39.90
2023-02-22T05:16:56.643Z,40.00
2023-02-22T05:19:27.791Z,40.10
2023-02-22T05:21:56.556Z,40.20
2023-02-22T05:24:25.130Z,40.20
2023-02-22T05:26:54.365Z,40.10
2023-02-22T05:29:23.034Z,40.10
2023-02-22T05:31:51.551Z,40.20
2023-02-22T05:34:20.002Z,40.00
2023-02-22T05:36:49.830Z,40.00
2023-02-22T05:39:18.545Z,40.00
2023-02-22T05:41:47.243Z,40.00
2023-02-22T05:44:16.162Z,39.90
2023-02-22T05:46:44.653Z,40.00
2023-02-22T05:49:13.094Z,40.10
2023-02-22T05:51:41.706Z,40.80
2023-02-22T05:54:11.581Z,40.00
2023-02-22T05:56:40.190Z,40.00
2023-02-22T05:59:08.690Z,40.00
2023-02-22T06:01:37.245Z,40.10
2023-02-22T06:04:05.887Z,40.10
2023-02-22T06:06:34.319Z,40.30
2023-02-22T06:09:02.761Z,40.50
2023-02-22T06:11:32.588Z,40.60
2023-02-22T06:14:01.012Z,40.60
2023-02-22T06:16:29.608Z,40.60
2023-02-22T06:18:58.080Z,40.60
2023-02-22T06:21:27.004Z,40.70
2023-02-22T06:23:55.544Z,40.70
2023-02-22T06:26:24.040Z,40.80
2023-02-22T06:28:54.024Z,40.60
2023-02-22T06:31:22.533Z,40.70
2023-02-22T06:33:50.999Z,40.70
2023-02-22T06:36:19.387Z,40.70
2023-02-22T06:38:47.855Z,40.70
2023-02-22T06:41:16.790Z,40.70
2023-02-22T06:43:45.431Z,40.50
2023-02-22T06:46:15.840Z,40.50
2023-02-22T06:48:44.523Z,40.50
2023-02-22T06:51:13.055Z,40.60
2023-02-22T06:53:41.633Z,40.50
2023-02-22T06:56:10.095Z,40.90
2023-02-22T06:58:38.704Z,41.10
2023-02-22T07:01:08.334Z,41.00
2023-02-22T07:03:38.286Z,40.50
2023-02-22T07:06:09.081Z,40.20
2023-02-22T07:08:38.054Z,39.60
2023-02-22T07:11:06.746Z,38.80
2023-02-22T07:13:35.319Z,38.00
2023-02-22T07:16:04.029Z,37.40
2023-02-22T07:18:32.443Z,36.50
2023-02-22T07:21:02.478Z,36.30
2023-02-22T07:23:30.935Z,36.00
2023-02-22T07:26:02.019Z,36.20
2023-02-22T07:28:30.494Z,35.90
2023-02-22T07:30:58.889Z,36.00
2023-02-22T07:33:27.262Z,36.60
2023-02-22T07:35:55.760Z,37.10
2023-02-22T07:38:25.568Z,36.30
2023-02-22T07:40:54.041Z,35.80
2023-02-22T07:43:24.930Z,34.90
2023-02-22T07:45:57.418Z,34.80
2023-02-22T07:48:28.625Z,34.60
2023-02-22T07:50:57.490Z,34.30
2023-02-22T07:53:30.762Z,33.70
2023-02-22T07:56:00.774Z,33.10
2023-02-22T07:58:31.573Z,32.70
2023-02-22T08:01:02.533Z,31.80
2023-02-22T08:03:36.605Z,31.50
2023-02-22T08:06:08.058Z,30.70
2023-02-22T08:08:37.932Z,30.70
2023-02-22T08:11:06.557Z,29.30
2023-02-22T08:13:37.154Z,27.90
2023-02-22T08:16:06.131Z,27.00
2023-02-22T08:18:34.537Z,26.70
2023-02-22T08:21:03.009Z,27.10
2023-02-22T08:23:31.791Z,25.80
2023-02-22T08:26:08.084Z,25.70
2023-02-22T08:28:36.912Z,22.90
2023-02-22T08:31:07.785Z,21.70
2023-02-22T08:33:36.572Z,21.70
2023-02-22T08:36:05.616Z,20.80
2023-02-22T08:38:34.879Z,19.80
2023-02-22T08:41:05.013Z,18.80
2023-02-22T08:43:33.563Z,18.10
2023-02-22T08:46:02.079Z,17.30
2023-02-22T08:48:30.476Z,17.20
2023-02-22T08:50:58.974Z,16.30
2023-02-22T08:53:27.508Z,15.60
2023-02-22T08:55:55.993Z,15.10
2023-02-22T08:58:26.025Z,15.30
2023-02-22T09:00:54.413Z,14.80
2023-02-22T09:03:22.991Z,14.20
2023-02-22T09:05:51.457Z,13.70
2023-02-22T09:08:20.104Z,13.90
2023-02-22T09:10:50.939Z,13.70
2023-02-22T09:13:19.522Z,13.30
2023-02-22T09:15:49.260Z,12.40
2023-02-22T09:18:18.239Z,11.70
2023-02-22T09:20:46.703Z,11.00
2023-02-22T09:23:15.522Z,10.80
2023-02-22T09:25:43.942Z,9.90
2023-02-22T09:28:12.387Z,9.00
2023-02-22T09:30:41.026Z,8.70
2023-02-22T09:33:16.888Z,8.60
2023-02-22T09:35:47.522Z,8.30
2023-02-22T09:38:19.093Z,8.30
2023-02-22T09:40:52.781Z,8.70
2023-02-22T09:43:40.857Z,8.90
2023-02-22T09:46:27.245Z,8.00
2023-02-22T09:49:08.264Z,8.00
2023-02-22T09:51:43.846Z,7.70
2023-02-22T09:54:23.801Z,6.60
2023-02-22T09:56:58.594Z,5.80
2023-02-22T09:59:33.184Z,5.30
2023-02-22T10:02:17.524Z,5.80
2023-02-22T10:04:57.912Z,5.40
2023-02-22T10:07:37.099Z,3.90
2023-02-22T10:10:06.692Z,4.30
2023-02-22T10:12:50.495Z,3.50
2023-02-22T10:15:58.412Z,3.20
2023-02-22T10:19:08.706Z,3.20
2023-02-22T10:21:59.331Z,2.60
2023-02-22T10:24:47.761Z,2.90
2023-02-22T10:27:22.197Z,3.10
2023-02-22T10:29:55.789Z,3.20
2023-02-22T10:32:32.430Z,3.90
2023-02-22T10:35:05.547Z,4.70
2023-02-22T10:37:36.196Z,4.90
2023-02-22T10:40:18.737Z,4.60
2023-02-22T10:42:48.216Z,3.80
2023-02-22T10:45:25.904Z,3.10
2023-02-22T10:47:59.442Z,2.10
2023-02-22T10:50:30.609Z,1.70
2023-02-22T10:53:00.509Z,1.00
2023-02-22T10:55:29.069Z,1.00
2023-02-22T10:58:06.183Z,1.00
2023-02-22T11:00:38.673Z,1.00
2023-02-22T11:03:19.898Z,1.00
2023-02-22T11:05:49.512Z,1.00
2023-02-22T11:08:29.333Z,1.00
2023-02-22T11:11:02.514Z,1.00
2023-02-22T11:13:34.492Z,1.00
2023-02-22T11:16:19.704Z,1.00
2023-02-22T11:18:49.177Z,1.00
2023-02-22T11:21:24.495Z,1.00
2023-02-22T11:24:04.796Z,1.00
2023-02-22T11:26:42.589Z,1.00
2023-02-22T11:29:21.604Z,1.00
2023-02-22T11:31:51.678Z,1.00
2023-02-22T11:34:36.949Z,1.00
2023-02-22T11:37:32.706Z,1.00
2023-02-22T11:40:22.888Z,1.00
2023-02-22T11:43:12.141Z,1.00
2023-02-22T11:45:49.859Z,1.00
2023-02-22T11:48:25.186Z,1.00
2023-02-22T11:51:14.325Z,1.00
2023-02-22T11:54:25.409Z,1.00
2023-02-22T11:57:09.382Z,1.00
2023-02-22T11:59:46.970Z,1.00
2023-02-22T12:02:56.427Z,1.00
2023-02-22T12:05:40.668Z,1.00
2023-02-22T12:08:24.197Z,1.00
2023-02-22T12:11:10.206Z,1.50
2023-02-22T12:13:58.842Z,1.50
2023-02-22T12:16:44.935Z,2.10
2023-02-22T12:19:28.685Z,2.10
2023-02-22T12:22:03.087Z,2.30
2023-02-22T12:24:38.443Z,2.50
2023-02-22T12:27:12.794Z,2.30
2023-02-22T12:29:48.051Z,2.00
2023-02-22T12:32:25.465Z,1.80
2023-02-22T12:35:00.552Z,2.00
2023-02-22T12:37:36.180Z,1.50
2023-02-22T12:40:15.825Z,2.10
2023-02-22T12:42:57.792Z,1.80
2023-02-22T12:45:37.154Z,2.40
2023-02-22T12:48:32.707Z,3.10
2023-02-22T12:51:17.117Z,3.00
2023-02-22T12:54:01.280Z,3.10
2023-02-22T12:56:37.934Z,3.80
2023-02-22T12:59:15.368Z,4.50
2023-02-22T13:01:53.757Z,4.90
2023-02-22T13:04:22.544Z,4.00
2023-02-22T13:07:13.402Z,3.50
2023-02-22T13:10:04.170Z,3.00
2023-02-22T13:12:50.706Z,2.90
2023-02-22T13:15:28.707Z,3.10
2023-02-22T13:18:10.623Z,3.40
2023-02-22T13:20:47.662Z,3.70
2023-02-22T13:23:33.259Z,3.80
2023-02-22T13:26:15.511Z,4.20
2023-02-22T13:28:52.046Z,4.50
2023-02-22T13:31:54.153Z,4.50
2023-02-22T13:35:00.722Z,5.10
2023-02-22T13:37:56.132Z,5.10
2023-02-22T13:41:08.955Z,5.00
2023-02-22T13:44:05.670Z,4.20
2023-02-22T13:47:22.022Z,4.50
2023-02-22T13:50:24.848Z,5.00
2023-02-22T13:52:56.142Z,6.20
2023-02-22T13:55:32.825Z,6.20
2023-02-22T13:58:06.444Z,6.00
2023-02-22T14:00:47.309Z,6.10
2023-02-22T14:03:40.966Z,6.20
2023-02-22T14:06:41.763Z,6.60
2023-02-22T14:09:19.085Z,6.70
2023-02-22T14:11:52.186Z,6.80
2023-02-22T14:14:21.571Z,7.10
2023-02-22T14:17:24.200Z,7.10
2023-02-22T14:20:20.166Z,7.10
2023-02-22T14:22:53.157Z,7.40
2023-02-22T14:25:39.124Z,7.80
2023-02-22T14:28:10.836Z,7.90
2023-02-22T14:30:41.163Z,7.90
2023-02-22T14:33:53.794Z,7.80
2023-02-22T14:36:26.978Z,8.10
2023-02-22T14:39:06.923Z,8.10
2023-02-22T14:41:39.271Z,8.10
2023-02-22T14:44:12.916Z,8.20
2023-02-22T14:46:50.184Z,8.60
2023-02-22T14:49:26.246Z,8.80
2023-02-22T14:52:04.004Z,8.90
2023-02-22T14:54:47.722Z,9.30
2023-02-22T14:57:29.200Z,9.40
2023-02-22T15:00:21.643Z,9.80
2023-02-22T15:02:52.807Z,10.10
2023-02-22T15:05:21.921Z,10.60
2023-02-22T15:07:57.432Z,10.60
2023-02-22T15:10:31.371Z,10.60
2023-02-22T15:13:10.654Z,10.90
2023-02-22T15:15:52.327Z,11.10
2023-02-22T15:18:29.437Z,11.10
2023-02-22T15:21:07.049Z,11.20
2023-02-22T15:23:45.201Z,11.30
2023-02-22T15:26:28.752Z,11.30
2023-02-22T15:28:58.778Z,10.80
2023-02-22T15:31:34.751Z,10.60
2023-02-22T15:34:24.344Z,10.30
2023-02-22T15:36:56.214Z,10.20
2023-02-22T15:39:29.553Z,10.50
2023-02-22T15:42:10.026Z,10.60
2023-02-22T15:44:41.953Z,10.90
2023-02-22T15:47:18.804Z,11.10
2023-02-22T15:49:47.550Z,11.50
2023-02-22T15:52:25.396Z,11.70
2023-02-22T15:54:54.649Z,11.90
2023-02-22T15:57:27.455Z,12.30
2023-02-22T15:59:58.720Z,12.50
2023-02-22T16:02:41.708Z,12.80
2023-02-22T16:05:14.154Z,13.00
2023-02-22T16:07:48.047Z,13.20
2023-02-22T16:10:26.197Z,13.30
2023-02-22T16:13:32.908Z,13.60
2023-02-22T16:16:04.698Z,14.50
2023-02-22T16:18:36.651Z,14.20
2023-02-22T16:21:11.894Z,14.30
2023-02-22T16:23:49.871Z,14.40
2023-02-22T16:26:28.090Z,14.50
2023-02-22T16:29:00.366Z,15.10
2023-02-22T16:31:33.899Z,15.70
2023-02-22T16:34:03.518Z,16.00
2023-02-22T16:36:41.623Z,16.20
2023-02-22T16:39:20.118Z,16.80
2023-02-22T16:41:48.680Z,17.60
2023-02-22T16:44:19.063Z,18.20
2023-02-22T16:46:47.771Z,18.60
2023-02-22T16:49:16.397Z,18.80
2023-02-22T16:51:50.655Z,19.00
2023-02-22T16:54:26.815Z,19.50
2023-02-22T16:57:00.365Z,19.80
2023-02-22T16:59:34.047Z,20.00
2023-02-22T17:02:07.612Z,20.20
2023-02-22T17:04:36.343Z,20.60
2023-02-22T17:07:05.466Z,20.80
2023-02-22T17:09:34.130Z,21.10
2023-02-22T17:12:03.890Z,21.60
2023-02-22T17:14:37.432Z,21.90
2023-02-22T17:17:08.436Z,22.10
2023-02-22T17:19:37.743Z,22.30
2023-02-22T17:22:09.250Z,22.40
2023-02-22T17:24:41.200Z,23.00
2023-02-22T17:27:14.821Z,23.40
2023-02-22T17:29:45.324Z,23.90
2023-02-22T17:32:14.629Z,23.80
2023-02-22T17:34:43.261Z,23.90
2023-02-22T17:37:11.811Z,24.20
2023-02-22T17:39:40.197Z,24.70
2023-02-22T17:42:08.763Z,25.00
2023-02-22T17:44:37.442Z,25.10
2023-02-22T17:47:07.908Z,25.00
2023-02-22T17:49:36.391Z,25.20
2023-02-22T17:52:06.434Z,25.20
2023-02-22T17:54:35.222Z,25.10
2023-02-22T17:57:04.740Z,25.10
2023-02-22T17:59:34.406Z,25.50
2023-02-22T18:02:03.477Z,25.90
2023-02-22T18:04:36.823Z,26.90
2023-02-22T18:07:05.406Z,27.40
2023-02-22T18:09:34.170Z,27.60
2023-02-22T18:12:02.685Z,28.20
2023-02-22T18:14:31.300Z,28.70
2023-02-22T18:17:01.354Z,28.90
2023-02-22T18:19:32.174Z,28.80
2023-02-22T18:22:03.925Z,28.80
2023-02-22T18:24:35.341Z,29.10
2023-02-22T18:27:06.265Z,29.30
2023-02-22T18:29:35.168Z,29.60
2023-02-22T18:32:03.739Z,29.90
2023-02-22T18:34:33.108Z,31.00
2023-02-22T18:37:05.645Z,31.00
2023-02-22T18:39:40.802Z,31.20
2023-02-22T18:42:11.426Z,31.00
2023-02-22T18:44:40.119Z,31.20
2023-02-22T18:47:16.752Z,32.40
2023-02-22T18:49:45.236Z,33.00
2023-02-22T18:52:15.194Z,32.90
2023-02-22T18:54:44.065Z,32.80
2023-02-22T18:57:13.826Z,33.10
2023-02-22T18:59:43.614Z,33.60
2023-02-22T19:02:15.437Z,34.00
2023-02-22T19:04:44.364Z,33.90
2023-02-22T19:07:18.029Z,33.70
2023-02-22T19:09:51.181Z,33.50
2023-02-22T19:12:23.802Z,33.50
2023-02-22T19:14:52.600Z,33.40
2023-02-22T19:17:21.607Z,33.20
2023-02-22T19:19:52.309Z,33.70
2023-02-22T19:22:26.030Z,34.00
2023-02-22T19:24:55.272Z,33.90
2023-02-22T19:27:24.455Z,33.90
2023-02-22T19:29:52.890Z,33.70
2023-02-22T19:32:21.961Z,33.60
2023-02-22T19:37:36.583Z,34.50
2023-02-22T19:40:09.552Z,34.90
2023-02-22T19:42:38.034Z,35.10
2023-02-22T19:45:07.078Z,35.10
2023-02-22T19:47:35.542Z,35.30
2023-02-22T19:50:05.335Z,35.80
2023-02-22T19:52:35.589Z,36.80
2023-02-22T19:55:04.127Z,37.30
2023-02-22T19:57:32.838Z,37.60
2023-02-22T20:00:13.210Z,37.30
2023-02-22T20:02:42.515Z,37.30
2023-02-22T20:05:16.489Z,36.90
2023-02-22T20:07:46.364Z,36.50
2023-02-22T20:10:15.285Z,36.30
2023-02-22T20:12:43.910Z,36.40
2023-02-22T20:15:13.806Z,36.40
2023-02-22T20:17:42.552Z,36.50
2023-02-22T20:20:13.058Z,36.70
2023-02-22T20:22:41.494Z,36.70
2023-02-22T20:25:11.761Z,36.50
2023-02-22T20:27:40.282Z,36.50
2023-02-22T20:30:11.029Z,36.60
2023-02-22T20:32:41.454Z,36.50
2023-02-22T20:35:10.445Z,36.60
2023-02-22T20:37:40.499Z,36.70
2023-02-22T20:40:11.738Z,36.80
2023-02-22T20:42:41.246Z,36.70
2023-02-22T20:45:12.021Z,36.30
2023-02-22T20:47:40.934Z,36.10
2023-02-22T20:50:10.003Z,36.10
2023-02-22T20:52:38.554Z,36.10
2023-02-22T20:55:11.518Z,36.00
2023-02-22T20:57:41.629Z,36.00
2023-02-22T21:00:11.797Z,35.90
2023-02-22T21:02:40.237Z,35.90
2023-02-22T21:05:09.737Z,35.70
2023-02-22T21:07:38.191Z,35.70
2023-02-22T21:10:08.277Z,35.60
2023-02-22T21:12:36.806Z,35.50
2023-02-22T21:15:07.754Z,35.50
2023-02-22T21:17:36.880Z,36.00
2023-02-22T21:20:12.259Z,36.70
2023-02-22T21:22:42.543Z,37.10
2023-02-22T21:25:13.535Z,37.20
2023-02-22T21:27:42.560Z,37.40
2023-02-22T21:30:15.030Z,37.30
2023-02-22T21:32:43.566Z,37.40
2023-02-22T21:35:12.173Z,37.20
2023-02-22T21:37:40.664Z,37.00
2023-02-22T21:40:12.198Z,36.80
2023-02-22T21:42:40.708Z,36.70
2023-02-22T21:45:13.739Z,36.70
2023-02-22T21:47:42.415Z,36.60
2023-02-22T21:50:13.208Z,36.60
2023-02-22T21:52:42.013Z,36.50
2023-02-22T21:55:11.834Z,36.50
2023-02-22T21:57:41.351Z,36.30
2023-02-22T22:00:18.310Z,36.30
2023-02-22T22:02:48.090Z,36.50
2023-02-22T22:05:31.577Z,36.80
2023-02-22T22:08:00.084Z,36.90
2023-02-22T22:10:30.910Z,37.10
2023-02-22T22:12:59.571Z,37.20
2023-02-22T22:15:30.376Z,37.20
2023-02-22T22:18:06.009Z,37.20
2023-02-22T22:20:37.899Z,37.40
2023-02-22T22:23:07.973Z,37.50
2023-02-22T22:25:38.158Z,38.10
2023-02-22T22:28:08.682Z,37.50
2023-02-22T22:30:39.322Z,37.50
2023-02-22T22:33:11.293Z,37.60
2023-02-22T22:35:41.855Z,37.80
2023-02-22T22:38:10.501Z,38.10
2023-02-22T22:40:39.879Z,38.20
2023-02-22T22:43:08.778Z,38.30
2023-02-22T22:45:39.019Z,38.40
2023-02-22T22:48:08.000Z,38.30
2023-02-22T22:50:37.714Z,38.10
2023-02-22T22:53:06.329Z,38.00
2023-02-22T22:55:35.440Z,38.10
2023-02-22T22:58:03.929Z,38.00
2023-02-22T23:00:37.458Z,37.90
2023-02-22T23:03:17.535Z,37.80
2023-02-22T23:05:46.586Z,37.60
2023-02-22T23:08:15.709Z,37.50
2023-02-22T23:10:44.252Z,37.40
2023-02-22T23:13:15.830Z,37.50
2023-02-22T23:15:47.744Z,37.50
2023-02-22T23:18:20.787Z,38.20
2023-02-22T23:20:55.071Z,37.60
2023-02-22T23:23:27.876Z,37.50
2023-02-22T23:26:11.636Z,37.50
2023-02-22T23:28:42.362Z,37.40
2023-02-22T23:31:14.569Z,37.40
2023-02-22T23:33:48.315Z,37.30
2023-02-22T23:36:17.440Z,37.20
2023-02-22T23:38:47.444Z,37.20
2023-02-22T23:41:17.916Z,37.30
2023-02-22T23:43:47.376Z,37.40
2023-02-22T23:46:19.638Z,37.50
2023-02-22T23:48:54.832Z,37.60
2023-02-22T23:51:25.761Z,37.70
2023-02-22T23:53:56.609Z,37.80
2023-02-22T23:56:28.634Z,37.70
2023-02-22T23:58:57.684Z,37.70
